sensor_id;sensor_type;location;lat;lon;timestamp;P1;durP1;ratioP1;P2;durP2;ratioP2
8225;SDS011;4154;48.810;9.012;2022-08-02T00:01:46;2.90;;;2.67;;
8225;SDS011;4154;48.810;9.012;2022-08-02T00:04:12;2.78;;;2.50;;
8225;SDS011;4154;48.810;9.012;2022-08-02T00:06:38;2.80;;;2.40;;
8225;SDS011;4154;48.810;9.012;2022-08-02T00:09:04;2.50;;;2.30;;
8225;SDS011;4154;48.810;9.012;2022-08-02T00:11:30;3.28;;;2.60;;
8225;SDS011;4154;48.810;9.012;2022-08-02T00:13:57;2.55;;;2.35;;
8225;SDS011;4154;48.810;9.012;2022-08-02T00:16:23;3.65;;;2.50;;
8225;SDS011;4154;48.810;9.012;2022-08-02T00:18:49;2.85;;;2.50;;
8225;SDS011;4154;48.810;9.012;2022-08-02T00:21:14;3.47;;;2.65;;
8225;SDS011;4154;48.810;9.012;2022-08-02T00:23:40;5.00;;;2.60;;
8225;SDS011;4154;48.810;9.012;2022-08-02T00:26:06;2.83;;;2.63;;
8225;SDS011;4154;48.810;9.012;2022-08-02T00:28:32;2.92;;;2.63;;
8225;SDS011;4154;48.810;9.012;2022-08-02T00:30:58;3.30;;;2.63;;
8225;SDS011;4154;48.810;9.012;2022-08-02T00:33:25;3.17;;;2.88;;
8225;SDS011;4154;48.810;9.012;2022-08-02T00:35:51;2.97;;;2.63;;
8225;SDS011;4154;48.810;9.012;2022-08-02T00:38:17;4.28;;;2.92;;
8225;SDS011;4154;48.810;9.012;2022-08-02T00:40:50;2.90;;;2.70;;
8225;SDS011;4154;48.810;9.012;2022-08-02T00:43:17;2.92;;;2.70;;
8225;SDS011;4154;48.810;9.012;2022-08-02T00:45:43;4.90;;;3.08;;
8225;SDS011;4154;48.810;9.012;2022-08-02T00:48:10;3.20;;;3.00;;
8225;SDS011;4154;48.810;9.012;2022-08-02T00:50:38;2.92;;;2.72;;
8225;SDS011;4154;48.810;9.012;2022-08-02T00:53:05;3.42;;;3.13;;
8225;SDS011;4154;48.810;9.012;2022-08-02T00:55:33;3.00;;;2.70;;
8225;SDS011;4154;48.810;9.012;2022-08-02T00:58:01;3.10;;;2.80;;
8225;SDS011;4154;48.810;9.012;2022-08-02T01:00:27;3.38;;;3.08;;
8225;SDS011;4154;48.810;9.012;2022-08-02T01:02:53;3.25;;;2.88;;
8225;SDS011;4154;48.810;9.012;2022-08-02T01:05:19;3.15;;;2.85;;
8225;SDS011;4154;48.810;9.012;2022-08-02T01:07:45;3.70;;;2.97;;
8225;SDS011;4154;48.810;9.012;2022-08-02T01:10:10;3.10;;;2.75;;
8225;SDS011;4154;48.810;9.012;2022-08-02T01:12:37;4.32;;;3.00;;
8225;SDS011;4154;48.810;9.012;2022-08-02T01:15:04;4.32;;;3.17;;
8225;SDS011;4154;48.810;9.012;2022-08-02T01:20:24;2.90;;;2.70;;
8225;SDS011;4154;48.810;9.012;2022-08-02T01:29:13;3.17;;;2.97;;
8225;SDS011;4154;48.810;9.012;2022-08-02T01:31:47;3.58;;;2.92;;
8225;SDS011;4154;48.810;9.012;2022-08-02T01:37:02;3.38;;;2.83;;
8225;SDS011;4154;48.810;9.012;2022-08-02T01:39:39;3.42;;;3.00;;
8225;SDS011;4154;48.810;9.012;2022-08-02T01:42:09;3.30;;;3.00;;
8225;SDS011;4154;48.810;9.012;2022-08-02T01:44:37;3.38;;;3.08;;
8225;SDS011;4154;48.810;9.012;2022-08-02T01:47:13;2.85;;;2.65;;
8225;SDS011;4154;48.810;9.012;2022-08-02T01:49:49;2.97;;;2.67;;
8225;SDS011;4154;48.810;9.012;2022-08-02T01:52:20;3.28;;;2.85;;
8225;SDS011;4154;48.810;9.012;2022-08-02T01:55:02;2.90;;;2.70;;
8225;SDS011;4154;48.810;9.012;2022-08-02T01:57:44;3.65;;;3.20;;
8225;SDS011;4154;48.810;9.012;2022-08-02T02:00:21;3.03;;;2.80;;
8225;SDS011;4154;48.810;9.012;2022-08-02T02:02:51;3.00;;;2.80;;
8225;SDS011;4154;48.810;9.012;2022-08-02T02:05:21;4.85;;;3.10;;
8225;SDS011;4154;48.810;9.012;2022-08-02T02:07:50;3.97;;;2.97;;
8225;SDS011;4154;48.810;9.012;2022-08-02T02:10:23;3.10;;;2.80;;
8225;SDS011;4154;48.810;9.012;2022-08-02T02:12:54;3.00;;;2.65;;
8225;SDS011;4154;48.810;9.012;2022-08-02T02:15:24;3.92;;;2.92;;
8225;SDS011;4154;48.810;9.012;2022-08-02T02:17:51;3.63;;;2.60;;
8225;SDS011;4154;48.810;9.012;2022-08-02T02:20:20;2.95;;;2.70;;
8225;SDS011;4154;48.810;9.012;2022-08-02T02:22:47;3.05;;;2.80;;
8225;SDS011;4154;48.810;9.012;2022-08-02T02:25:14;2.72;;;2.53;;
8225;SDS011;4154;48.810;9.012;2022-08-02T02:28:02;2.60;;;2.40;;
8225;SDS011;4154;48.810;9.012;2022-08-02T02:30:33;3.53;;;2.55;;
8225;SDS011;4154;48.810;9.012;2022-08-02T02:33:05;4.30;;;2.97;;
8225;SDS011;4154;48.810;9.012;2022-08-02T02:35:35;3.00;;;2.60;;
8225;SDS011;4154;48.810;9.012;2022-08-02T02:38:03;3.97;;;2.80;;
8225;SDS011;4154;48.810;9.012;2022-08-02T02:40:33;2.88;;;2.53;;
8225;SDS011;4154;48.810;9.012;2022-08-02T02:43:01;5.07;;;2.70;;
8225;SDS011;4154;48.810;9.012;2022-08-02T02:45:30;3.03;;;2.50;;
8225;SDS011;4154;48.810;9.012;2022-08-02T02:47:58;3.33;;;2.47;;
8225;SDS011;4154;48.810;9.012;2022-08-02T02:50:26;2.85;;;2.63;;
8225;SDS011;4154;48.810;9.012;2022-08-02T02:52:53;2.65;;;2.42;;
8225;SDS011;4154;48.810;9.012;2022-08-02T02:55:20;3.70;;;2.70;;
8225;SDS011;4154;48.810;9.012;2022-08-02T02:57:48;2.70;;;2.13;;
8225;SDS011;4154;48.810;9.012;2022-08-02T03:00:14;2.80;;;2.40;;
8225;SDS011;4154;48.810;9.012;2022-08-02T03:02:42;2.58;;;2.30;;
8225;SDS011;4154;48.810;9.012;2022-08-02T03:05:10;3.40;;;2.60;;
8225;SDS011;4154;48.810;9.012;2022-08-02T03:07:37;4.18;;;2.60;;
8225;SDS011;4154;48.810;9.012;2022-08-02T03:10:04;2.67;;;2.42;;
8225;SDS011;4154;48.810;9.012;2022-08-02T03:12:32;3.63;;;2.75;;
8225;SDS011;4154;48.810;9.012;2022-08-02T03:15:00;3.33;;;2.85;;
8225;SDS011;4154;48.810;9.012;2022-08-02T03:17:38;3.28;;;2.40;;
8225;SDS011;4154;48.810;9.012;2022-08-02T03:20:08;2.78;;;2.50;;
8225;SDS011;4154;48.810;9.012;2022-08-02T03:22:39;2.50;;;2.30;;
8225;SDS011;4154;48.810;9.012;2022-08-02T03:25:08;2.97;;;2.67;;
8225;SDS011;4154;48.810;9.012;2022-08-02T03:27:36;3.08;;;2.53;;
8225;SDS011;4154;48.810;9.012;2022-08-02T03:30:03;2.65;;;2.45;;
8225;SDS011;4154;48.810;9.012;2022-08-02T03:32:33;3.13;;;2.50;;
8225;SDS011;4154;48.810;9.012;2022-08-02T03:35:00;3.13;;;2.15;;
8225;SDS011;4154;48.810;9.012;2022-08-02T03:37:29;2.38;;;2.22;;
8225;SDS011;4154;48.810;9.012;2022-08-02T03:39:57;2.67;;;2.30;;
8225;SDS011;4154;48.810;9.012;2022-08-02T03:42:25;2.50;;;2.30;;
8225;SDS011;4154;48.810;9.012;2022-08-02T03:44:54;2.30;;;2.15;;
8225;SDS011;4154;48.810;9.012;2022-08-02T03:47:20;3.30;;;2.70;;
8225;SDS011;4154;48.810;9.012;2022-08-02T03:49:48;2.60;;;2.40;;
8225;SDS011;4154;48.810;9.012;2022-08-02T03:52:15;2.25;;;2.05;;
8225;SDS011;4154;48.810;9.012;2022-08-02T03:54:41;2.70;;;2.45;;
8225;SDS011;4154;48.810;9.012;2022-08-02T03:57:07;2.40;;;2.20;;
8225;SDS011;4154;48.810;9.012;2022-08-02T03:59:42;2.63;;;2.40;;
8225;SDS011;4154;48.810;9.012;2022-08-02T04:02:10;3.22;;;2.47;;
8225;SDS011;4154;48.810;9.012;2022-08-02T04:04:37;2.47;;;2.20;;
8225;SDS011;4154;48.810;9.012;2022-08-02T04:07:04;2.80;;;2.60;;
8225;SDS011;4154;48.810;9.012;2022-08-02T04:09:30;4.53;;;2.50;;
8225;SDS011;4154;48.810;9.012;2022-08-02T04:11:56;2.92;;;2.60;;
8225;SDS011;4154;48.810;9.012;2022-08-02T04:14:22;3.58;;;2.50;;
8225;SDS011;4154;48.810;9.012;2022-08-02T04:16:52;2.60;;;2.40;;
8225;SDS011;4154;48.810;9.012;2022-08-02T04:19:36;2.75;;;2.30;;
8225;SDS011;4154;48.810;9.012;2022-08-02T04:22:09;2.65;;;2.45;;
8225;SDS011;4154;48.810;9.012;2022-08-02T04:24:44;2.50;;;2.30;;
8225;SDS011;4154;48.810;9.012;2022-08-02T04:27:15;2.60;;;2.40;;
8225;SDS011;4154;48.810;9.012;2022-08-02T04:29:44;2.63;;;2.40;;
8225;SDS011;4154;48.810;9.012;2022-08-02T04:32:13;2.90;;;2.60;;
8225;SDS011;4154;48.810;9.012;2022-08-02T04:34:41;2.58;;;2.38;;
8225;SDS011;4154;48.810;9.012;2022-08-02T04:37:09;3.13;;;2.75;;
8225;SDS011;4154;48.810;9.012;2022-08-02T04:39:37;4.10;;;2.63;;
8225;SDS011;4154;48.810;9.012;2022-08-02T04:42:05;2.55;;;2.35;;
8225;SDS011;4154;48.810;9.012;2022-08-02T04:44:31;3.10;;;2.80;;
8225;SDS011;4154;48.810;9.012;2022-08-02T04:46:59;3.47;;;2.65;;
8225;SDS011;4154;48.810;9.012;2022-08-02T04:49:29;3.10;;;2.88;;
8225;SDS011;4154;48.810;9.012;2022-08-02T04:51:56;2.95;;;2.67;;
8225;SDS011;4154;48.810;9.012;2022-08-02T04:54:21;2.63;;;2.42;;
8225;SDS011;4154;48.810;9.012;2022-08-02T04:56:49;2.90;;;2.70;;
8225;SDS011;4154;48.810;9.012;2022-08-02T04:59:15;3.35;;;2.50;;
8225;SDS011;4154;48.810;9.012;2022-08-02T05:01:41;2.90;;;2.70;;
8225;SDS011;4154;48.810;9.012;2022-08-02T05:04:07;2.72;;;2.53;;
8225;SDS011;4154;48.810;9.012;2022-08-02T05:06:33;3.10;;;2.80;;
8225;SDS011;4154;48.810;9.012;2022-08-02T05:08:59;4.35;;;2.88;;
8225;SDS011;4154;48.810;9.012;2022-08-02T05:11:25;4.80;;;2.50;;
8225;SDS011;4154;48.810;9.012;2022-08-02T05:13:53;2.90;;;2.40;;
8225;SDS011;4154;48.810;9.012;2022-08-02T05:16:18;2.92;;;2.67;;
8225;SDS011;4154;48.810;9.012;2022-08-02T05:18:45;2.72;;;2.53;;
8225;SDS011;4154;48.810;9.012;2022-08-02T05:21:11;7.72;;;2.63;;
8225;SDS011;4154;48.810;9.012;2022-08-02T05:23:37;4.82;;;2.53;;
8225;SDS011;4154;48.810;9.012;2022-08-02T05:26:02;3.47;;;2.70;;
8225;SDS011;4154;48.810;9.012;2022-08-02T05:28:28;3.20;;;2.85;;
8225;SDS011;4154;48.810;9.012;2022-08-02T05:30:54;3.17;;;2.88;;
8225;SDS011;4154;48.810;9.012;2022-08-02T05:33:19;3.20;;;2.80;;
8225;SDS011;4154;48.810;9.012;2022-08-02T05:35:45;4.07;;;2.60;;
8225;SDS011;4154;48.810;9.012;2022-08-02T05:38:11;3.72;;;2.67;;
8225;SDS011;4154;48.810;9.012;2022-08-02T05:40:37;3.13;;;2.60;;
8225;SDS011;4154;48.810;9.012;2022-08-02T05:43:13;3.13;;;2.80;;
8225;SDS011;4154;48.810;9.012;2022-08-02T05:45:39;3.97;;;2.90;;
8225;SDS011;4154;48.810;9.012;2022-08-02T05:48:06;4.82;;;3.10;;
8225;SDS011;4154;48.810;9.012;2022-08-02T05:50:32;2.75;;;2.55;;
8225;SDS011;4154;48.810;9.012;2022-08-02T05:53:03;3.17;;;2.83;;
8225;SDS011;4154;48.810;9.012;2022-08-02T05:55:51;3.00;;;2.80;;
8225;SDS011;4154;48.810;9.012;2022-08-02T05:58:55;4.22;;;3.17;;
8225;SDS011;4154;48.810;9.012;2022-08-02T06:01:37;2.83;;;2.63;;
8225;SDS011;4154;48.810;9.012;2022-08-02T06:04:08;3.13;;;2.90;;
8225;SDS011;4154;48.810;9.012;2022-08-02T06:06:37;3.25;;;2.78;;
8225;SDS011;4154;48.810;9.012;2022-08-02T06:09:10;5.85;;;3.10;;
8225;SDS011;4154;48.810;9.012;2022-08-02T06:11:46;3.95;;;3.03;;
8225;SDS011;4154;48.810;9.012;2022-08-02T06:14:15;3.13;;;2.83;;
8225;SDS011;4154;48.810;9.012;2022-08-02T06:16:42;5.50;;;3.00;;
8225;SDS011;4154;48.810;9.012;2022-08-02T06:19:13;3.25;;;2.95;;
8225;SDS011;4154;48.810;9.012;2022-08-02T06:21:42;3.15;;;2.83;;
8225;SDS011;4154;48.810;9.012;2022-08-02T06:24:09;3.30;;;2.72;;
8225;SDS011;4154;48.810;9.012;2022-08-02T06:26:37;5.55;;;3.10;;
8225;SDS011;4154;48.810;9.012;2022-08-02T06:29:06;3.13;;;2.83;;
8225;SDS011;4154;48.810;9.012;2022-08-02T06:31:33;3.67;;;2.90;;
8225;SDS011;4154;48.810;9.012;2022-08-02T06:34:00;2.72;;;2.53;;
8225;SDS011;4154;48.810;9.012;2022-08-02T06:39:34;2.92;;;2.72;;
8225;SDS011;4154;48.810;9.012;2022-08-02T06:42:14;4.05;;;3.30;;
8225;SDS011;4154;48.810;9.012;2022-08-02T06:44:47;2.97;;;2.78;;
8225;SDS011;4154;48.810;9.012;2022-08-02T06:47:13;2.88;;;2.65;;
8225;SDS011;4154;48.810;9.012;2022-08-02T06:49:39;3.75;;;3.03;;
8225;SDS011;4154;48.810;9.012;2022-08-02T06:52:05;3.20;;;2.90;;
8225;SDS011;4154;48.810;9.012;2022-08-02T06:54:31;2.83;;;2.63;;
8225;SDS011;4154;48.810;9.012;2022-08-02T06:56:58;3.33;;;2.95;;
8225;SDS011;4154;48.810;9.012;2022-08-02T06:59:24;4.57;;;3.13;;
8225;SDS011;4154;48.810;9.012;2022-08-02T07:01:50;4.82;;;2.92;;
8225;SDS011;4154;48.810;9.012;2022-08-02T07:04:16;6.32;;;3.20;;
8225;SDS011;4154;48.810;9.012;2022-08-02T07:06:42;3.22;;;2.88;;
8225;SDS011;4154;48.810;9.012;2022-08-02T07:09:08;3.80;;;2.85;;
8225;SDS011;4154;48.810;9.012;2022-08-02T07:11:34;3.45;;;3.15;;
8225;SDS011;4154;48.810;9.012;2022-08-02T07:14:00;4.43;;;2.90;;
8225;SDS011;4154;48.810;9.012;2022-08-02T07:16:26;3.65;;;2.90;;
8225;SDS011;4154;48.810;9.012;2022-08-02T07:18:52;2.80;;;2.60;;
8225;SDS011;4154;48.810;9.012;2022-08-02T07:21:18;3.45;;;3.00;;
8225;SDS011;4154;48.810;9.012;2022-08-02T07:23:44;3.30;;;3.00;;
8225;SDS011;4154;48.810;9.012;2022-08-02T07:26:09;3.25;;;2.67;;
8225;SDS011;4154;48.810;9.012;2022-08-02T07:28:36;3.30;;;3.00;;
8225;SDS011;4154;48.810;9.012;2022-08-02T07:31:02;3.03;;;2.83;;
8225;SDS011;4154;48.810;9.012;2022-08-02T07:33:28;3.15;;;2.70;;
8225;SDS011;4154;48.810;9.012;2022-08-02T07:35:54;3.97;;;3.00;;
8225;SDS011;4154;48.810;9.012;2022-08-02T07:38:21;4.32;;;3.22;;
8225;SDS011;4154;48.810;9.012;2022-08-02T07:40:48;4.07;;;2.85;;
8225;SDS011;4154;48.810;9.012;2022-08-02T07:43:15;3.47;;;3.15;;
8225;SDS011;4154;48.810;9.012;2022-08-02T07:45:41;3.63;;;3.33;;
8225;SDS011;4154;48.810;9.012;2022-08-02T07:48:07;3.70;;;3.40;;
8225;SDS011;4154;48.810;9.012;2022-08-02T07:50:34;3.33;;;3.00;;
8225;SDS011;4154;48.810;9.012;2022-08-02T07:52:59;3.63;;;3.10;;
8225;SDS011;4154;48.810;9.012;2022-08-02T07:55:25;4.53;;;3.33;;
8225;SDS011;4154;48.810;9.012;2022-08-02T07:57:51;3.40;;;3.10;;
8225;SDS011;4154;48.810;9.012;2022-08-02T08:00:17;3.75;;;3.03;;
8225;SDS011;4154;48.810;9.012;2022-08-02T08:02:44;3.65;;;3.20;;
8225;SDS011;4154;48.810;9.012;2022-08-02T08:05:11;3.78;;;3.20;;
8225;SDS011;4154;48.810;9.012;2022-08-02T08:07:37;4.53;;;3.80;;
8225;SDS011;4154;48.810;9.012;2022-08-02T08:10:04;4.30;;;3.92;;
8225;SDS011;4154;48.810;9.012;2022-08-02T08:12:32;4.78;;;4.30;;
8225;SDS011;4154;48.810;9.012;2022-08-02T08:14:58;3.90;;;3.47;;
8225;SDS011;4154;48.810;9.012;2022-08-02T08:17:24;4.38;;;3.85;;
8225;SDS011;4154;48.810;9.012;2022-08-02T08:19:50;5.55;;;3.95;;
8225;SDS011;4154;48.810;9.012;2022-08-02T08:22:16;6.38;;;3.97;;
8225;SDS011;4154;48.810;9.012;2022-08-02T08:24:42;6.38;;;4.28;;
8225;SDS011;4154;48.810;9.012;2022-08-02T08:27:07;6.07;;;4.10;;
8225;SDS011;4154;48.810;9.012;2022-08-02T08:29:38;4.35;;;3.95;;
8225;SDS011;4154;48.810;9.012;2022-08-02T08:32:08;7.45;;;4.30;;
8225;SDS011;4154;48.810;9.012;2022-08-02T08:34:35;6.43;;;4.20;;
8225;SDS011;4154;48.810;9.012;2022-08-02T08:37:01;6.85;;;4.22;;
8225;SDS011;4154;48.810;9.012;2022-08-02T08:39:28;4.60;;;4.20;;
8225;SDS011;4154;48.810;9.012;2022-08-02T08:41:54;4.53;;;4.10;;
8225;SDS011;4154;48.810;9.012;2022-08-02T08:44:20;6.43;;;4.35;;
8225;SDS011;4154;48.810;9.012;2022-08-02T08:46:46;5.20;;;4.70;;
8225;SDS011;4154;48.810;9.012;2022-08-02T08:52:09;9.02;;;4.85;;
8225;SDS011;4154;48.810;9.012;2022-08-02T08:54:37;5.18;;;4.25;;
8225;SDS011;4154;48.810;9.012;2022-08-02T08:57:05;8.00;;;5.00;;
8225;SDS011;4154;48.810;9.012;2022-08-02T08:59:32;4.40;;;4.00;;
8225;SDS011;4154;48.810;9.012;2022-08-02T09:01:59;5.57;;;4.38;;
8225;SDS011;4154;48.810;9.012;2022-08-02T09:04:26;5.10;;;4.60;;
8225;SDS011;4154;48.810;9.012;2022-08-02T09:06:52;4.80;;;4.30;;
8225;SDS011;4154;48.810;9.012;2022-08-02T09:09:19;7.90;;;4.40;;
8225;SDS011;4154;48.810;9.012;2022-08-02T09:11:45;5.70;;;4.35;;
8225;SDS011;4154;48.810;9.012;2022-08-02T09:14:11;7.15;;;4.22;;
8225;SDS011;4154;48.810;9.012;2022-08-02T09:17:06;4.80;;;3.97;;
8225;SDS011;4154;48.810;9.012;2022-08-02T09:19:36;4.57;;;4.13;;
8225;SDS011;4154;48.810;9.012;2022-08-02T09:22:04;4.78;;;4.25;;
8225;SDS011;4154;48.810;9.012;2022-08-02T09:25:07;5.97;;;4.43;;
8225;SDS011;4154;48.810;9.012;2022-08-02T09:27:26;4.80;;;4.35;;
8225;SDS011;4154;48.810;9.012;2022-08-02T09:29:52;6.70;;;4.60;;
8225;SDS011;4154;48.810;9.012;2022-08-02T09:32:18;5.50;;;4.47;;
8225;SDS011;4154;48.810;9.012;2022-08-02T09:34:49;4.97;;;4.47;;
8225;SDS011;4154;48.810;9.012;2022-08-02T09:37:35;5.35;;;4.20;;
8225;SDS011;4154;48.810;9.012;2022-08-02T09:40:01;5.72;;;4.07;;
8225;SDS011;4154;48.810;9.012;2022-08-02T09:42:29;6.57;;;4.20;;
8225;SDS011;4154;48.810;9.012;2022-08-02T09:44:55;4.68;;;4.13;;
8225;SDS011;4154;48.810;9.012;2022-08-02T09:47:24;5.10;;;4.60;;
8225;SDS011;4154;48.810;9.012;2022-08-02T09:49:52;4.95;;;4.45;;
8225;SDS011;4154;48.810;9.012;2022-08-02T09:52:27;4.88;;;4.43;;
8225;SDS011;4154;48.810;9.012;2022-08-02T09:55:02;4.63;;;4.15;;
8225;SDS011;4154;48.810;9.012;2022-08-02T09:57:32;5.82;;;4.20;;
8225;SDS011;4154;48.810;9.012;2022-08-02T09:59:58;5.75;;;3.97;;
8225;SDS011;4154;48.810;9.012;2022-08-02T10:02:24;5.10;;;4.40;;
8225;SDS011;4154;48.810;9.012;2022-08-02T10:04:51;5.93;;;3.97;;
8225;SDS011;4154;48.810;9.012;2022-08-02T10:07:17;4.60;;;4.20;;
8225;SDS011;4154;48.810;9.012;2022-08-02T10:09:44;4.43;;;4.03;;
8225;SDS011;4154;48.810;9.012;2022-08-02T10:12:11;5.22;;;4.10;;
8225;SDS011;4154;48.810;9.012;2022-08-02T10:14:37;4.38;;;4.07;;
8225;SDS011;4154;48.810;9.012;2022-08-02T10:17:04;4.97;;;4.60;;
8225;SDS011;4154;48.810;9.012;2022-08-02T10:19:31;4.68;;;4.28;;
8225;SDS011;4154;48.810;9.012;2022-08-02T10:22:03;4.07;;;3.67;;
8225;SDS011;4154;48.810;9.012;2022-08-02T10:24:35;4.72;;;4.20;;
8225;SDS011;4154;48.810;9.012;2022-08-02T10:27:03;4.50;;;4.10;;
8225;SDS011;4154;48.810;9.012;2022-08-02T10:29:39;4.15;;;3.70;;
8225;SDS011;4154;48.810;9.012;2022-08-02T10:32:12;4.03;;;3.72;;
8225;SDS011;4154;48.810;9.012;2022-08-02T10:34:47;4.53;;;3.75;;
8225;SDS011;4154;48.810;9.012;2022-08-02T10:37:30;3.97;;;3.67;;
8225;SDS011;4154;48.810;9.012;2022-08-02T10:40:00;4.40;;;3.90;;
8225;SDS011;4154;48.810;9.012;2022-08-02T10:42:46;4.28;;;3.83;;
8225;SDS011;4154;48.810;9.012;2022-08-02T10:45:14;4.88;;;3.90;;
8225;SDS011;4154;48.810;9.012;2022-08-02T10:53:27;4.07;;;3.78;;
8225;SDS011;4154;48.810;9.012;2022-08-02T10:55:59;4.85;;;3.90;;
8225;SDS011;4154;48.810;9.012;2022-08-02T10:58:28;4.22;;;3.83;;
8225;SDS011;4154;48.810;9.012;2022-08-02T11:00:57;3.85;;;3.55;;
8225;SDS011;4154;48.810;9.012;2022-08-02T11:06:16;3.38;;;3.17;;
8225;SDS011;4154;48.810;9.012;2022-08-02T11:08:42;3.28;;;3.08;;
8225;SDS011;4154;48.810;9.012;2022-08-02T11:13:58;3.17;;;2.90;;
8225;SDS011;4154;48.810;9.012;2022-08-02T11:19:20;3.30;;;2.80;;
8225;SDS011;4154;48.810;9.012;2022-08-02T11:22:03;3.03;;;2.75;;
8225;SDS011;4154;48.810;9.012;2022-08-02T11:24:36;3.25;;;2.95;;
8225;SDS011;4154;48.810;9.012;2022-08-02T11:27:06;3.28;;;3.00;;
8225;SDS011;4154;48.810;9.012;2022-08-02T11:29:42;3.20;;;3.00;;
8225;SDS011;4154;48.810;9.012;2022-08-02T11:32:20;3.22;;;3.03;;
8225;SDS011;4154;48.810;9.012;2022-08-02T11:34:49;3.42;;;3.20;;
8225;SDS011;4154;48.810;9.012;2022-08-02T11:37:29;3.20;;;3.00;;
8225;SDS011;4154;48.810;9.012;2022-08-02T11:39:56;3.63;;;3.30;;
8225;SDS011;4154;48.810;9.012;2022-08-02T11:42:32;4.78;;;3.10;;
8225;SDS011;4154;48.810;9.012;2022-08-02T11:45:03;3.42;;;3.00;;
8225;SDS011;4154;48.810;9.012;2022-08-02T11:47:31;3.78;;;3.20;;
8225;SDS011;4154;48.810;9.012;2022-08-02T11:50:07;3.28;;;3.08;;
8225;SDS011;4154;48.810;9.012;2022-08-02T11:52:35;3.35;;;3.05;;
8225;SDS011;4154;48.810;9.012;2022-08-02T11:55:02;4.00;;;3.10;;
8225;SDS011;4154;48.810;9.012;2022-08-02T11:57:31;3.20;;;3.00;;
8225;SDS011;4154;48.810;9.012;2022-08-02T11:59:58;5.32;;;2.80;;
8225;SDS011;4154;48.810;9.012;2022-08-02T12:02:26;4.22;;;3.05;;
8225;SDS011;4154;48.810;9.012;2022-08-02T12:04:59;3.72;;;3.15;;
8225;SDS011;4154;48.810;9.012;2022-08-02T12:07:29;3.65;;;3.10;;
8225;SDS011;4154;48.810;9.012;2022-08-02T12:09:59;3.22;;;3.03;;
8225;SDS011;4154;48.810;9.012;2022-08-02T12:12:29;3.75;;;2.92;;
8225;SDS011;4154;48.810;9.012;2022-08-02T12:14:54;3.55;;;2.90;;
8225;SDS011;4154;48.810;9.012;2022-08-02T12:17:24;3.05;;;2.80;;
8225;SDS011;4154;48.810;9.012;2022-08-02T12:20:09;2.90;;;2.70;;
8225;SDS011;4154;48.810;9.012;2022-08-02T12:22:37;3.10;;;2.83;;
8225;SDS011;4154;48.810;9.012;2022-08-02T12:25:14;3.00;;;2.70;;
8225;SDS011;4154;48.810;9.012;2022-08-02T12:27:43;2.90;;;2.70;;
8225;SDS011;4154;48.810;9.012;2022-08-02T12:30:09;2.90;;;2.70;;
8225;SDS011;4154;48.810;9.012;2022-08-02T12:32:43;2.92;;;2.63;;
8225;SDS011;4154;48.810;9.012;2022-08-02T12:35:15;5.82;;;3.13;;
8225;SDS011;4154;48.810;9.012;2022-08-02T12:37:46;4.68;;;2.70;;
8225;SDS011;4154;48.810;9.012;2022-08-02T12:40:21;3.20;;;2.92;;
8225;SDS011;4154;48.810;9.012;2022-08-02T12:43:01;5.90;;;2.92;;
8225;SDS011;4154;48.810;9.012;2022-08-02T12:45:43;3.00;;;2.70;;
8225;SDS011;4154;48.810;9.012;2022-08-02T12:48:13;3.08;;;2.78;;
8225;SDS011;4154;48.810;9.012;2022-08-02T12:50:41;3.42;;;2.80;;
8225;SDS011;4154;48.810;9.012;2022-08-02T12:58:20;2.70;;;2.50;;
8225;SDS011;4154;48.810;9.012;2022-08-02T13:00:53;3.83;;;2.80;;
8225;SDS011;4154;48.810;9.012;2022-08-02T13:03:22;3.05;;;2.70;;
8225;SDS011;4154;48.810;9.012;2022-08-02T13:05:49;2.80;;;2.60;;
8225;SDS011;4154;48.810;9.012;2022-08-02T13:08:15;2.90;;;2.67;;
8225;SDS011;4154;48.810;9.012;2022-08-02T13:10:42;3.13;;;2.78;;
8225;SDS011;4154;48.810;9.012;2022-08-02T13:13:08;2.80;;;2.60;;
8225;SDS011;4154;48.810;9.012;2022-08-02T13:15:35;2.90;;;2.67;;
8225;SDS011;4154;48.810;9.012;2022-08-02T13:18:01;3.88;;;2.63;;
8225;SDS011;4154;48.810;9.012;2022-08-02T13:20:27;3.83;;;2.47;;
8225;SDS011;4154;48.810;9.012;2022-08-02T13:22:53;2.97;;;2.63;;
8225;SDS011;4154;48.810;9.012;2022-08-02T13:25:20;3.00;;;2.80;;
8225;SDS011;4154;48.810;9.012;2022-08-02T13:27:50;2.65;;;2.45;;
8225;SDS011;4154;48.810;9.012;2022-08-02T13:30:18;4.88;;;2.72;;
8225;SDS011;4154;48.810;9.012;2022-08-02T13:32:44;4.00;;;2.70;;
8225;SDS011;4154;48.810;9.012;2022-08-02T13:35:10;3.17;;;2.83;;
8225;SDS011;4154;48.810;9.012;2022-08-02T13:37:36;3.88;;;2.65;;
8225;SDS011;4154;48.810;9.012;2022-08-02T13:40:02;3.35;;;2.30;;
8225;SDS011;4154;48.810;9.012;2022-08-02T13:42:30;2.45;;;2.25;;
8225;SDS011;4154;48.810;9.012;2022-08-02T13:44:57;5.30;;;2.50;;
8225;SDS011;4154;48.810;9.012;2022-08-02T13:47:23;2.80;;;2.60;;
8225;SDS011;4154;48.810;9.012;2022-08-02T13:49:48;2.60;;;2.40;;
8225;SDS011;4154;48.810;9.012;2022-08-02T13:52:15;2.88;;;2.67;;
8225;SDS011;4154;48.810;9.012;2022-08-02T13:54:41;2.83;;;2.60;;
8225;SDS011;4154;48.810;9.012;2022-08-02T13:57:07;2.92;;;2.50;;
8225;SDS011;4154;48.810;9.012;2022-08-02T13:59:32;2.60;;;2.40;;
8225;SDS011;4154;48.810;9.012;2022-08-02T14:01:58;3.67;;;2.55;;
8225;SDS011;4154;48.810;9.012;2022-08-02T14:04:24;2.85;;;2.55;;
8225;SDS011;4154;48.810;9.012;2022-08-02T14:06:51;4.43;;;2.63;;
8225;SDS011;4154;48.810;9.012;2022-08-02T14:09:17;2.83;;;2.47;;
8225;SDS011;4154;48.810;9.012;2022-08-02T14:11:44;4.03;;;2.33;;
8225;SDS011;4154;48.810;9.012;2022-08-02T14:14:11;3.10;;;2.22;;
8225;SDS011;4154;48.810;9.012;2022-08-02T14:16:37;2.35;;;2.17;;
8225;SDS011;4154;48.810;9.012;2022-08-02T14:19:03;2.70;;;2.50;;
8225;SDS011;4154;48.810;9.012;2022-08-02T14:21:29;2.80;;;2.60;;
8225;SDS011;4154;48.810;9.012;2022-08-02T14:23:57;3.65;;;2.40;;
8225;SDS011;4154;48.810;9.012;2022-08-02T14:26:23;2.70;;;2.38;;
8225;SDS011;4154;48.810;9.012;2022-08-02T14:28:48;2.50;;;2.30;;
8225;SDS011;4154;48.810;9.012;2022-08-02T14:31:14;2.95;;;2.40;;
8225;SDS011;4154;48.810;9.012;2022-08-02T14:33:43;2.70;;;2.50;;
8225;SDS011;4154;48.810;9.012;2022-08-02T14:36:09;3.58;;;2.70;;
8225;SDS011;4154;48.810;9.012;2022-08-02T14:38:34;4.07;;;2.80;;
8225;SDS011;4154;48.810;9.012;2022-08-02T14:41:01;2.47;;;2.33;;
8225;SDS011;4154;48.810;9.012;2022-08-02T14:43:27;2.53;;;2.33;;
8225;SDS011;4154;48.810;9.012;2022-08-02T14:46:12;5.30;;;2.63;;
8225;SDS011;4154;48.810;9.012;2022-08-02T14:48:37;2.80;;;2.40;;
8225;SDS011;4154;48.810;9.012;2022-08-02T14:51:03;4.05;;;2.40;;
8225;SDS011;4154;48.810;9.012;2022-08-02T14:53:29;3.05;;;2.40;;
8225;SDS011;4154;48.810;9.012;2022-08-02T14:55:55;2.55;;;2.35;;
8225;SDS011;4154;48.810;9.012;2022-08-02T14:58:21;2.80;;;2.38;;
8225;SDS011;4154;48.810;9.012;2022-08-02T15:00:46;2.88;;;2.55;;
8225;SDS011;4154;48.810;9.012;2022-08-02T15:03:12;3.58;;;2.50;;
8225;SDS011;4154;48.810;9.012;2022-08-02T15:05:38;5.03;;;2.40;;
8225;SDS011;4154;48.810;9.012;2022-08-02T15:08:04;2.83;;;2.60;;
8225;SDS011;4154;48.810;9.012;2022-08-02T15:10:30;2.97;;;2.30;;
8225;SDS011;4154;48.810;9.012;2022-08-02T15:12:56;2.58;;;2.38;;
8225;SDS011;4154;48.810;9.012;2022-08-02T15:15:22;3.58;;;2.40;;
8225;SDS011;4154;48.810;9.012;2022-08-02T15:17:50;2.40;;;2.25;;
8225;SDS011;4154;48.810;9.012;2022-08-02T15:20:16;2.60;;;2.40;;
8225;SDS011;4154;48.810;9.012;2022-08-02T15:22:42;2.58;;;2.30;;
8225;SDS011;4154;48.810;9.012;2022-08-02T15:25:07;2.38;;;2.20;;
8225;SDS011;4154;48.810;9.012;2022-08-02T15:27:34;2.65;;;2.20;;
8225;SDS011;4154;48.810;9.012;2022-08-02T15:29:59;3.00;;;2.50;;
8225;SDS011;4154;48.810;9.012;2022-08-02T15:32:25;2.47;;;2.28;;
8225;SDS011;4154;48.810;9.012;2022-08-02T15:34:52;2.60;;;2.40;;
8225;SDS011;4154;48.810;9.012;2022-08-02T15:37:17;3.55;;;2.20;;
8225;SDS011;4154;48.810;9.012;2022-08-02T15:39:43;2.83;;;2.28;;
8225;SDS011;4154;48.810;9.012;2022-08-02T15:42:09;2.75;;;2.25;;
8225;SDS011;4154;48.810;9.012;2022-08-02T15:44:35;2.60;;;2.40;;
8225;SDS011;4154;48.810;9.012;2022-08-02T15:47:03;2.60;;;2.40;;
8225;SDS011;4154;48.810;9.012;2022-08-02T15:49:30;5.30;;;2.60;;
8225;SDS011;4154;48.810;9.012;2022-08-02T15:51:56;2.53;;;2.17;;
8225;SDS011;4154;48.810;9.012;2022-08-02T15:54:22;4.25;;;2.67;;
8225;SDS011;4154;48.810;9.012;2022-08-02T15:56:48;3.28;;;2.70;;
8225;SDS011;4154;48.810;9.012;2022-08-02T15:59:14;4.20;;;2.50;;
8225;SDS011;4154;48.810;9.012;2022-08-02T16:01:40;2.70;;;2.47;;